Time;durP1;ratioP1;P1;durP2;ratioP2;P2;SDS_P1;SDS_P2;PMS_P1;PMS_P2;Temp;Humidity;BMP_temperature;BMP_pressure;BME280_temperature;BME280_humidity;BME280_pressure;Samples;Min_cycle;Max_cycle;Signal;HPM_P1;HPM_P2
2021/09/30 00:02:00;;;;;;;2.28;0.50;;;;;;;12.72;70.24;97233.47;5046389;28;20045;-74
2021/09/30 00:04:27;;;;;;;1.65;0.60;;;;;;;12.70;70.11;97235.72;5046934;28;20638;-75
2021/09/30 00:06:53;;;;;;;1.42;0.60;;;;;;;12.67;70.13;97241.00;5046616;28;20049;-75
2021/09/30 00:09:20;;;;;;;1.30;0.45;;;;;;;12.67;70.24;97241.00;5046585;28;20664;-75
2021/09/30 00:11:52;;;;;;;0.65;0.50;;;;;;;12.70;70.36;97241.19;5046648;28;20041;-75
2021/09/30 00:14:23;;;;;;;1.10;0.55;;;;;;;12.71;69.72;97242.81;5045962;28;20083;-76
2021/09/30 00:17:02;;;;;;;0.93;0.50;;;;;;;12.64;70.59;97242.44;5047068;28;20355;-75
2021/09/30 00:33:25;;;;;;;1.38;0.60;;;;;;;12.56;70.63;97236.91;5046007;28;20084;-74
2021/09/30 00:36:02;;;;;;;1.10;0.40;;;;;;;12.51;70.77;97240.56;5047235;28;20703;-74
2021/09/30 00:41:36;;;;;;;1.60;0.75;;;;;;;12.35;71.36;97239.28;5046251;28;20068;-75
2021/09/30 00:46:57;;;;;;;1.13;0.40;;;;;;;12.32;71.59;97253.53;5046491;28;20059;-74
2021/09/30 00:49:33;;;;;;;1.35;0.80;;;;;;;12.30;71.37;97258.53;5046925;28;20557;-76
2021/09/30 00:52:04;;;;;;;0.90;0.60;;;;;;;12.31;72.37;97251.94;5047209;28;20068;-74
2021/09/30 00:54:46;;;;;;;1.52;0.75;;;;;;;12.34;71.39;97259.53;5046389;28;20128;-74
2021/09/30 01:20:39;;;;;;;5.00;0.80;;;;;;;12.30;71.79;97277.63;5047139;28;20052;-76
2021/09/30 02:19:16;;;;;;;2.03;0.90;;;;;;;11.76;72.80;97321.81;5048841;28;20059;-77
2021/09/30 02:27:35;;;;;;;1.52;0.80;;;;;;;11.80;73.04;97323.91;5015386;28;20060;-78
2021/09/30 02:30:13;;;;;;;2.03;1.25;;;;;;;11.85;72.64;97329.31;5048897;28;20071;-74
2021/09/30 03:00:23;;;;;;;4.65;0.80;;;;;;;11.86;70.10;97352.78;5047978;28;20059;-76
2021/09/30 03:02:53;;;;;;;2.58;0.70;;;;;;;11.82;69.30;97359.94;5048445;28;20389;-78
2021/09/30 03:05:23;;;;;;;3.08;0.60;;;;;;;11.83;70.00;97353.38;5048162;28;20068;-76
2021/09/30 03:07:52;;;;;;;1.98;0.60;;;;;;;11.83;70.58;97358.84;5048333;28;20049;-76
2021/09/30 03:10:20;;;;;;;3.58;0.90;;;;;;;11.76;69.70;97365.47;5047958;28;20049;-76
2021/09/30 03:12:48;;;;;;;1.98;0.70;;;;;;;11.80;69.73;97362.13;5048232;28;20047;-76
2021/09/30 03:15:18;;;;;;;2.60;0.70;;;;;;;11.79;69.58;97363.25;5048423;28;20055;-76
2021/09/30 03:17:48;;;;;;;1.88;0.65;;;;;;;11.83;69.92;97364.28;5048032;28;20141;-76
2021/09/30 03:20:40;;;;;;;3.58;0.98;;;;;;;11.82;69.50;97368.94;5048309;28;20049;-78
2021/09/30 03:23:11;;;;;;;2.10;0.85;;;;;;;11.75;69.56;97363.84;5047344;28;20135;-76
2021/09/30 03:25:38;;;;;;;4.05;0.77;;;;;;;11.74;69.93;97367.72;5048395;28;20694;-75
2021/09/30 03:28:06;;;;;;;4.50;1.10;;;;;;;11.72;69.43;97369.91;5048011;28;20423;-75
2021/09/30 03:30:34;;;;;;;3.20;0.68;;;;;;;11.69;69.96;97375.97;5047662;28;20041;-76
2021/09/30 03:33:04;;;;;;;4.70;0.70;;;;;;;11.65;69.89;97364.03;5048647;28;20132;-76
2021/09/30 03:35:32;;;;;;;2.55;0.65;;;;;;;11.60;69.70;97372.31;5047427;28;20074;-77
2021/09/30 03:38:00;;;;;;;2.97;0.80;;;;;;;11.58;70.17;97366.34;5048264;28;20066;-76
2021/09/30 03:40:28;;;;;;;2.40;0.70;;;;;;;11.56;70.55;97363.09;5047063;28;20537;-76
2021/09/30 03:42:55;;;;;;;2.65;0.77;;;;;;;11.55;70.77;97366.13;5047943;28;20055;-76
2021/09/30 03:45:21;;;;;;;3.10;0.60;;;;;;;11.53;70.86;97369.16;5047484;28;20523;-76
2021/09/30 03:47:48;;;;;;;1.58;0.63;;;;;;;11.49;70.67;97370.88;5047884;28;20514;-76
2021/09/30 03:50:17;;;;;;;3.75;1.00;;;;;;;11.46;70.95;97368.72;5047497;28;20049;-78
2021/09/30 03:52:59;;;;;;;2.75;0.75;;;;;;;11.39;70.43;97360.94;5046993;28;20123;-77
2021/09/30 03:55:39;;;;;;;2.47;0.70;;;;;;;11.36;70.94;97372.44;5047845;28;20496;-76
2021/09/30 04:00:51;;;;;;;1.65;0.60;;;;;;;11.38;70.55;97374.84;5047708;28;20415;-75
2021/09/30 04:03:18;;;;;;;2.55;0.90;;;;;;;11.37;71.14;97374.03;5046835;28;20045;-76
2021/09/30 04:05:44;;;;;;;4.03;0.77;;;;;;;11.40;71.04;97378.13;5047388;28;20048;-75
2021/09/30 04:08:11;;;;;;;1.48;0.60;;;;;;;11.40;70.64;97378.13;5047309;28;20041;-76
2021/09/30 04:10:37;;;;;;;3.47;0.80;;;;;;;11.35;70.76;97381.72;5046994;28;20057;-76
2021/09/30 04:13:04;;;;;;;4.75;0.90;;;;;;;11.29;70.95;97380.19;5047843;28;20049;-76
2021/09/30 04:15:32;;;;;;;4.28;1.02;;;;;;;11.24;71.52;97381.09;5046825;28;20053;-76
2021/09/30 04:17:58;;;;;;;1.80;0.63;;;;;;;11.21;71.33;97387.13;5047723;28;20053;-76
2021/09/30 04:20:27;;;;;;;3.53;0.70;;;;;;;11.24;70.89;97386.53;5046437;28;20534;-76
2021/09/30 04:22:53;;;;;;;2.03;0.75;;;;;;;11.24;71.64;97381.09;5047073;28;20124;-76
2021/09/30 04:25:20;;;;;;;7.28;1.08;;;;;;;11.19;72.00;97386.63;5046658;28;20053;-76
2021/09/30 04:27:47;;;;;;;3.13;0.77;;;;;;;11.21;71.03;97387.13;5047199;28;20052;-76
2021/09/30 04:30:14;;;;;;;1.83;0.80;;;;;;;11.21;70.63;97391.75;5046945;28;20056;-76
2021/09/30 04:32:41;;;;;;;1.83;0.80;;;;;;;11.19;71.44;97394.78;5046812;28;20052;-76
2021/09/30 04:35:09;;;;;;;4.82;1.05;;;;;;;11.19;71.81;97394.00;5046998;28;20048;-76
2021/09/30 04:37:35;;;;;;;1.83;0.80;;;;;;;11.22;71.16;97405.13;5046918;28;20037;-75
2021/09/30 04:40:02;;;;;;;1.48;0.65;;;;;;;11.20;70.82;97407.31;5046791;28;20511;-75
2021/09/30 04:42:28;;;;;;;2.88;0.80;;;;;;;11.22;70.45;97404.28;5046630;28;20055;-76
2021/09/30 04:44:55;;;;;;;3.67;0.93;;;;;;;11.19;70.39;97416.59;5047175;28;20408;-76
2021/09/30 04:47:21;;;;;;;2.15;0.88;;;;;;;11.19;71.33;97416.59;5046356;28;20053;-75
2021/09/30 04:49:49;;;;;;;3.00;0.80;;;;;;;11.15;71.60;97421.03;5046598;28;20041;-76
2021/09/30 04:52:16;;;;;;;3.17;0.90;;;;;;;11.18;71.25;97414.19;5045850;28;20055;-76
2021/09/30 04:54:42;;;;;;;2.28;0.80;;;;;;;11.19;70.94;97416.59;5046813;28;20056;-76
2021/09/30 04:57:09;;;;;;;3.95;0.90;;;;;;;11.22;71.57;97426.09;5046669;28;20056;-76
2021/09/30 04:59:36;;;;;;;3.10;0.98;;;;;;;11.18;72.56;97417.72;5046532;28;20128;-76
2021/09/30 05:02:02;;;;;;;4.65;1.00;;;;;;;11.20;72.36;97423.66;5047210;28;20499;-75
2021/09/30 05:04:28;;;;;;;3.92;1.05;;;;;;;11.20;70.99;97431.03;5046457;28;20048;-76
2021/09/30 05:06:56;;;;;;;6.22;0.98;;;;;;;11.24;71.58;97430.16;5047488;28;20052;-75
2021/09/30 05:09:23;;;;;;;4.18;1.00;;;;;;;11.23;71.35;97423.09;5045904;28;20060;-76
2021/09/30 05:11:52;;;;;;;2.65;1.00;;;;;;;11.27;72.09;97425.22;5046781;28;20091;-78
2021/09/30 05:14:19;;;;;;;3.28;1.08;;;;;;;11.26;71.66;97424.41;5046149;28;20049;-77
2021/09/30 05:16:47;;;;;;;2.55;1.00;;;;;;;11.24;70.70;97424.72;5046774;28;20041;-76
2021/09/30 05:19:14;;;;;;;2.55;0.90;;;;;;;11.20;71.84;97417.41;5048525;28;20053;-76
2021/09/30 05:21:40;;;;;;;2.83;0.88;;;;;;;11.14;71.82;97416.69;5049048;28;20048;-77
2021/09/30 05:24:08;;;;;;;7.47;1.10;;;;;;;11.17;72.11;97423.44;5050332;28;20052;-76
2021/09/30 05:26:35;;;;;;;2.85;1.10;;;;;;;11.17;72.88;97418.00;5050052;28;20617;-76
2021/09/30 05:29:02;;;;;;;5.07;1.45;;;;;;;11.18;73.02;97416.91;5050664;28;20045;-70
2021/09/30 05:31:28;;;;;;;3.78;1.33;;;;;;;11.21;72.07;97419.84;5049847;28;20049;-76
2021/09/30 05:33:55;;;;;;;2.75;1.20;;;;;;;11.22;72.29;97420.63;5050604;28;20424;-76
2021/09/30 05:36:23;;;;;;;4.15;1.20;;;;;;;11.17;72.60;97423.44;5049514;28;20071;-76
2021/09/30 05:38:49;;;;;;;8.90;1.15;;;;;;;11.17;72.88;97418.84;5050378;28;20094;-78
2021/09/30 05:41:18;;;;;;;2.72;1.17;;;;;;;11.22;73.22;97432.38;5049644;28;20416;-77
2021/09/30 05:43:49;;;;;;;2.65;1.02;;;;;;;11.27;73.35;97414.31;5049710;28;20550;-77
2021/09/30 05:46:18;;;;;;;2.38;1.10;;;;;;;11.27;73.40;97422.47;5050477;28;20052;-76
2021/09/30 05:48:45;;;;;;;10.88;2.88;;;;;;;11.31;73.50;97424.31;5049791;28;20057;-78
2021/09/30 05:51:11;;;;;;;4.18;1.00;;;;;;;11.33;74.05;97421.28;5049644;28;20048;-76
2021/09/30 05:53:38;;;;;;;4.88;1.40;;;;;;;11.34;73.85;97418.28;5049942;28;20566;-75
2021/09/30 05:56:05;;;;;;;3.58;1.20;;;;;;;11.40;73.28;97421.75;5049659;28;20060;-75
2021/09/30 05:58:33;;;;;;;2.53;0.90;;;;;;;11.44;72.44;97422.78;5049466;28;20037;-76
2021/09/30 06:01:07;;;;;;;3.08;1.10;;;;;;;11.45;71.75;97424.41;5049768;28;20045;-76
2021/09/30 06:12:10;;;;;;;3.63;0.90;;;;;;;11.42;71.84;97446.78;5049420;28;20151;-76
2021/09/30 06:14:40;;;;;;;2.83;1.17;;;;;;;11.41;71.89;97445.19;5049542;28;20075;-76
2021/09/30 06:17:07;;;;;;;3.72;1.10;;;;;;;11.41;72.27;97443.25;5049140;28;20736;-75
2021/09/30 06:19:33;;;;;;;3.33;1.17;;;;;;;11.46;72.11;97447.81;5048955;28;20048;-76
2021/09/30 06:22:04;;;;;;;1.95;1.00;;;;;;;11.42;72.44;97449.53;5049609;28;20112;-75
2021/09/30 06:24:31;;;;;;;4.10;1.00;;;;;;;11.42;71.98;97452.25;5047757;28;20049;-76
2021/09/30 06:26:58;;;;;;;3.05;1.08;;;;;;;11.47;71.94;97457.63;5055289;28;20048;-75
2021/09/30 06:29:24;;;;;;;3.83;1.48;;;;;;;11.49;72.18;97452.69;5047856;28;20049;-76
2021/09/30 06:31:52;;;;;;;4.35;1.48;;;;;;;11.52;71.80;97446.63;5049474;28;20403;-75
2021/09/30 06:34:19;;;;;;;3.00;1.25;;;;;;;11.61;72.43;97449.50;5048474;28;20045;-74
2021/09/30 06:36:45;;;;;;;4.45;1.20;;;;;;;11.70;71.63;97451.25;5048955;28;20511;-75
2021/09/30 06:39:12;;;;;;;4.88;1.10;;;;;;;11.81;71.02;97453.81;5048888;28;20041;-76
2021/09/30 06:41:38;;;;;;;4.15;1.20;;;;;;;11.87;70.82;97449.91;5048684;28;20045;-76
2021/09/30 06:44:05;;;;;;;4.95;1.55;;;;;;;11.94;70.87;97453.06;5048233;28;20519;-74
2021/09/30 06:46:32;;;;;;;4.40;1.17;;;;;;;11.95;70.23;97449.22;5048692;28;20044;-76
2021/09/30 06:49:00;;;;;;;2.45;1.02;;;;;;;12.01;70.21;97453.50;5049122;28;20060;-75
2021/09/30 06:51:26;;;;;;;3.00;1.08;;;;;;;12.00;69.53;97455.41;5039021;28;20854;-75
2021/09/30 06:53:53;;;;;;;2.25;0.80;;;;;;;11.99;69.77;97455.72;5009282;28;20049;-76
2021/09/30 06:56:20;;;;;;;3.08;1.13;;;;;;;11.89;70.26;97464.06;5008247;28;20065;-76
2021/09/30 06:58:47;;;;;;;2.03;0.90;;;;;;;11.84;70.92;97458.69;5009312;28;20156;-75
2021/09/30 07:01:16;;;;;;;2.25;0.90;;;;;;;11.82;70.73;97463.66;5009806;28;20129;-75
2021/09/30 07:03:43;;;;;;;3.20;1.00;;;;;;;11.76;70.85;97458.25;5028721;28;20045;-74
2021/09/30 07:06:12;;;;;;;2.53;1.02;;;;;;;11.74;71.05;97471.41;5028382;28;20487;-75
2021/09/30 07:08:39;;;;;;;3.70;1.25;;;;;;;11.75;70.91;97470.28;5028144;28;20044;-76
2021/09/30 07:11:06;;;;;;;2.05;1.00;;;;;;;11.77;69.59;97462.59;5028634;28;20500;-77
2021/09/30 07:13:32;;;;;;;3.95;1.38;;;;;;;11.75;70.64;97466.75;5027835;28;20045;-76
2021/09/30 07:15:59;;;;;;;3.35;1.60;;;;;;;11.74;69.85;97471.41;5028720;28;20050;-75
2021/09/30 07:18:25;;;;;;;7.32;1.20;;;;;;;11.83;70.39;97468.00;5026204;28;20053;-75
2021/09/30 07:20:57;;;;;;;5.47;1.70;;;;;;;11.95;70.92;97476.50;5028678;28;20128;-77
2021/09/30 07:23:25;;;;;;;2.42;1.13;;;;;;;12.31;70.43;97462.22;5028054;28;20049;-76
2021/09/30 07:25:52;;;;;;;5.75;1.30;;;;;;;12.56;67.60;97475.41;5028082;28;20049;-75
2021/09/30 07:28:19;;;;;;;11.07;1.30;;;;;;;12.63;68.37;97475.00;5027238;28;20045;-77
2021/09/30 07:30:46;;;;;;;5.05;1.17;;;;;;;13.00;65.51;97473.97;5028024;28;20077;-77
2021/09/30 07:33:13;;;;;;;5.18;1.17;;;;;;;13.18;64.77;97480.41;5028160;28;20431;-76
2021/09/30 07:35:39;;;;;;;3.17;0.93;;;;;;;12.97;63.17;97483.59;5027762;28;20045;-75
2021/09/30 07:38:06;;;;;;;3.08;1.10;;;;;;;12.80;65.17;97481.47;5028453;28;20045;-76
2021/09/30 07:40:34;;;;;;;2.17;1.02;;;;;;;12.62;65.84;97474.19;5027474;28;20056;-75
2021/09/30 07:43:01;;;;;;;2.53;1.20;;;;;;;12.51;67.59;97479.03;5027775;28;20803;-76
2021/09/30 07:45:27;;;;;;;3.72;1.08;;;;;;;12.41;67.17;97483.88;5027817;28;20052;-75
2021/09/30 07:47:54;;;;;;;2.03;0.90;;;;;;;12.25;68.25;97484.16;5027958;28;20045;-77
2021/09/30 07:50:20;;;;;;;1.85;1.10;;;;;;;12.72;66.47;97484.91;5027606;28;20057;-77
2021/09/30 07:52:47;;;;;;;3.80;1.10;;;;;;;13.88;62.88;97488.09;5026957;28;20052;-77
2021/09/30 07:55:13;;;;;;;4.68;1.15;;;;;;;15.06;60.23;97488.53;5027977;28;20165;-77
2021/09/30 07:57:41;;;;;;;2.17;0.85;;;;;;;15.96;53.76;97487.97;5027391;28;20041;-77
2021/09/30 08:00:09;;;;;;;3.95;1.10;;;;;;;16.10;53.01;97494.09;5027957;28;20416;-77
2021/09/30 08:02:35;;;;;;;3.13;0.98;;;;;;;16.40;54.49;97493.06;5027090;28;20053;-77
2021/09/30 08:05:02;;;;;;;3.40;1.00;;;;;;;16.43;54.00;97494.31;5027422;28;20041;-76
2021/09/30 08:07:28;;;;;;;4.38;0.93;;;;;;;16.58;53.62;97482.78;5026978;28;20519;-78
2021/09/30 08:09:55;;;;;;;4.70;1.40;;;;;;;16.37;51.06;97499.19;5027696;28;20042;-78
2021/09/30 08:12:21;;;;;;;4.28;1.00;;;;;;;15.88;53.47;97497.84;5027293;28;20154;-78
2021/09/30 08:14:49;;;;;;;3.47;1.02;;;;;;;15.53;54.70;97488.75;5027442;28;20056;-78
2021/09/30 08:17:15;;;;;;;2.65;0.75;;;;;;;15.24;55.81;97489.34;5027469;28;20053;-75
2021/09/30 08:19:42;;;;;;;2.10;0.80;;;;;;;14.92;56.07;97487.84;5027099;28;20049;-75
2021/09/30 08:22:08;;;;;;;3.97;0.88;;;;;;;14.62;56.05;97490.34;5027000;28;20049;-77
2021/09/30 08:24:35;;;;;;;2.25;0.88;;;;;;;14.81;57.46;97493.59;5027009;28;20401;-75
2021/09/30 08:27:02;;;;;;;3.80;1.00;;;;;;;14.79;54.35;97495.06;5027455;28;20052;-72
2021/09/30 08:29:28;;;;;;;5.72;1.45;;;;;;;14.64;53.49;97485.34;5027069;28;20053;-77
2021/09/30 08:31:56;;;;;;;1.90;0.70;;;;;;;14.53;52.98;97492.22;5027679;28;20045;-76
2021/09/30 08:34:23;;;;;;;2.22;0.75;;;;;;;14.63;54.39;97488.41;5026885;28;20053;-75
2021/09/30 08:36:49;;;;;;;4.10;1.60;;;;;;;14.76;54.60;97490.22;5026884;28;20049;-75
2021/09/30 08:39:16;;;;;;;1.60;0.65;;;;;;;15.05;53.98;97481.44;5027417;28;20064;-76
2021/09/30 08:41:42;;;;;;;3.90;1.20;;;;;;;15.27;52.85;97489.53;5026945;28;20135;-75
2021/09/30 08:44:09;;;;;;;2.83;0.75;;;;;;;15.17;52.14;97484.34;5027409;28;20060;-75
2021/09/30 08:46:36;;;;;;;2.95;1.10;;;;;;;15.02;50.95;97493.03;5026776;28;20419;-75
2021/09/30 08:49:05;;;;;;;1.70;0.70;;;;;;;14.93;51.41;97483.97;5027464;28;20049;-75
2021/09/30 08:51:35;;;;;;;2.65;1.00;;;;;;;14.67;52.43;97486.63;5026349;28;20809;-76
2021/09/30 08:54:02;;;;;;;4.18;1.20;;;;;;;14.54;52.76;97488.34;5031040;28;20496;-75
2021/09/30 08:56:30;;;;;;;2.58;0.70;;;;;;;14.62;53.34;97484.84;5031318;28;20060;-75
2021/09/30 08:58:57;;;;;;;2.33;0.70;;;;;;;14.65;53.40;97483.41;5030486;28;20576;-76
2021/09/30 09:01:23;;;;;;;7.25;1.00;;;;;;;14.67;54.30;97476.50;5030829;28;20041;-75
2021/09/30 09:03:50;;;;;;;6.38;1.13;;;;;;;14.69;54.40;97474.22;5030754;28;20048;-77
2021/09/30 09:06:32;;;;;;;2.72;0.52;;;;;;;14.75;52.65;97488.59;5030930;28;20647;-76
2021/09/30 09:09:23;;;;;;;3.05;0.70;;;;;;;14.73;52.11;97491.66;5030329;28;20046;-76
2021/09/30 09:11:50;;;;;;;3.17;0.80;;;;;;;14.52;52.99;97490.63;5050700;28;20055;-76
2021/09/30 09:14:28;;;;;;;3.88;0.73;;;;;;;14.31;53.96;97485.66;5049961;28;20049;-75
2021/09/30 09:16:59;;;;;;;4.82;0.77;;;;;;;14.19;54.68;97492.81;5050554;28;20102;-76
2021/09/30 09:19:31;;;;;;;3.22;0.75;;;;;;;14.06;53.12;97494.53;5050442;28;20056;-75
2021/09/30 09:22:04;;;;;;;3.13;0.90;;;;;;;13.95;54.29;97493.16;5033568;28;20060;-75
2021/09/30 09:24:30;;;;;;;2.25;0.60;;;;;;;14.12;53.46;97487.78;5011097;28;20081;-75
2021/09/30 09:26:59;;;;;;;1.95;0.55;;;;;;;14.45;51.07;97479.25;5010361;28;20046;-76
2021/09/30 09:29:29;;;;;;;3.30;0.68;;;;;;;14.61;51.02;97478.53;5010391;28;20045;-76
2021/09/30 09:31:56;;;;;;;3.63;0.75;;;;;;;14.73;50.50;97475.22;5018014;28;20057;-76
2021/09/30 09:34:27;;;;;;;2.63;0.50;;;;;;;14.76;48.88;97477.31;5030395;28;20050;-75
2021/09/30 09:36:56;;;;;;;3.05;0.70;;;;;;;14.59;46.91;97480.00;5030761;28;20052;-76
2021/09/30 09:39:34;;;;;;;2.00;0.50;;;;;;;14.54;49.03;97482.88;5029708;28;20053;-75
2021/09/30 09:42:09;;;;;;;2.38;0.57;;;;;;;14.72;47.09;97479.09;5030728;28;20049;-77
2021/09/30 09:44:50;;;;;;;2.72;0.60;;;;;;;14.87;47.89;97475.88;5029829;28;20427;-76
2021/09/30 09:47:21;;;;;;;2.67;0.68;;;;;;;15.10;46.42;97484.03;5030133;28;20053;-75
2021/09/30 09:50:16;;;;;;;4.93;0.70;;;;;;;15.11;45.08;97480.97;5030178;28;20048;-77
2021/09/30 09:52:45;;;;;;;3.70;0.80;;;;;;;15.28;43.58;97474.69;5029264;28;20037;-75
2021/09/30 09:55:17;;;;;;;2.67;0.55;;;;;;;15.10;45.81;97484.03;5030385;28;20049;-77
2021/09/30 09:57:58;;;;;;;2.10;0.68;;;;;;;15.25;44.80;97475.34;5029761;28;20056;-75
2021/09/30 10:00:25;;;;;;;1.70;0.70;;;;;;;15.34;49.00;97475.34;5029486;28;20579;-75
2021/09/30 10:02:52;;;;;;;3.03;0.85;;;;;;;15.49;48.20;97479.53;5029098;28;20068;-74
2021/09/30 10:05:19;;;;;;;2.38;0.80;;;;;;;15.49;46.81;97463.88;5028001;28;20577;-76
2021/09/30 10:07:47;;;;;;;2.17;0.63;;;;;;;15.38;46.94;97457.09;5029058;28;20046;-77
2021/09/30 10:10:15;;;;;;;4.20;0.60;;;;;;;15.42;49.04;97457.28;5029322;28;20460;-75
2021/09/30 10:12:42;;;;;;;4.13;0.70;;;;;;;15.68;50.07;97455.34;5029811;28;20053;-79
2021/09/30 10:15:09;;;;;;;3.22;0.60;;;;;;;15.81;46.74;97453.56;5028676;28;20045;-74
2021/09/30 10:17:36;;;;;;;3.13;0.70;;;;;;;15.55;46.66;97457.09;5029862;28;20041;-75
2021/09/30 10:20:04;;;;;;;2.60;0.82;;;;;;;15.40;49.34;97452.91;5028812;28;20045;-75
2021/09/30 10:22:30;;;;;;;1.52;0.50;;;;;;;15.33;46.77;97449.81;5029204;28;20045;-76
2021/09/30 10:24:57;;;;;;;2.25;0.50;;;;;;;15.27;43.39;97451.13;5028818;28;20440;-76
2021/09/30 10:27:26;;;;;;;2.50;0.40;;;;;;;15.14;45.69;97447.41;5029408;28;20053;-76
2021/09/30 10:29:54;;;;;;;1.77;0.60;;;;;;;14.95;45.21;97449.63;5028961;28;20046;-75
2021/09/30 10:32:23;;;;;;;1.60;0.63;;;;;;;14.95;46.49;97443.34;5028838;28;20064;-76
2021/09/30 10:34:54;;;;;;;0.75;0.50;;;;;;;14.84;45.64;97442.81;5029255;28;20547;-74
2021/09/30 10:37:25;;;;;;;1.80;0.50;;;;;;;14.80;47.11;97447.31;5028453;28;20077;-76
2021/09/30 10:40:14;;;;;;;3.10;0.40;;;;;;;14.92;48.17;97439.28;5029507;28;20573;-76
2021/09/30 10:42:44;;;;;;;2.53;0.50;;;;;;;14.95;44.64;97444.13;5028711;28;20147;-75
2021/09/30 10:45:12;;;;;;;3.42;0.73;;;;;;;14.81;46.91;97441.50;5029200;28;20590;-74
2021/09/30 10:47:39;;;;;;;3.08;0.52;;;;;;;14.78;45.73;97438.63;5028964;28;20683;-74
2021/09/30 10:50:06;;;;;;;3.08;0.60;;;;;;;14.78;43.53;97441.38;5028929;28;20049;-76
2021/09/30 10:52:35;;;;;;;1.77;0.73;;;;;;;14.86;46.18;97441.38;5028569;28;20229;-74
2021/09/30 10:55:27;;;;;;;1.10;0.40;;;;;;;15.01;45.20;97440.09;5028470;28;20132;-72
2021/09/30 10:57:56;;;;;;;1.33;0.63;;;;;;;15.02;43.01;97435.44;5029394;28;20080;-75
2021/09/30 11:00:46;;;;;;;1.70;0.60;;;;;;;15.00;45.40;97434.94;5027203;28;20043;-74
2021/09/30 11:03:20;;;;;;;2.30;0.80;;;;;;;15.18;48.18;97431.09;5027786;28;20041;-74
2021/09/30 11:06:15;;;;;;;4.03;0.60;;;;;;;15.12;46.39;97437.88;5028512;28;20073;-76
2021/09/30 11:08:43;;;;;;;1.45;0.60;;;;;;;15.07;46.86;97421.56;5027884;28;20041;-75
2021/09/30 11:11:16;;;;;;;2.80;0.60;;;;;;;15.07;47.35;97425.09;5027569;28;20103;-76
2021/09/30 11:13:46;;;;;;;1.10;0.50;;;;;;;15.02;47.59;97410.75;5027273;28;20045;-75
2021/09/30 11:16:16;;;;;;;3.78;0.63;;;;;;;14.99;45.48;97406.72;5027437;28;20103;-74
2021/09/30 11:18:47;;;;;;;3.15;0.60;;;;;;;14.92;44.77;97411.03;5028198;28;20099;-76
2021/09/30 11:21:41;;;;;;;2.88;0.77;;;;;;;14.88;45.33;97410.91;5027410;28;20057;-74
2021/09/30 11:24:10;;;;;;;3.22;0.80;;;;;;;15.09;47.82;97408.34;5027563;28;20046;-74
2021/09/30 11:27:07;;;;;;;3.47;0.82;;;;;;;15.16;44.95;97405.91;5027592;28;20046;-75
2021/09/30 11:29:36;;;;;;;3.88;0.88;;;;;;;15.25;46.43;97409.50;5028486;28;20056;-75
2021/09/30 11:32:24;;;;;;;1.63;0.50;;;;;;;15.17;46.21;97412.22;5027333;28;20049;-75
2021/09/30 11:34:54;;;;;;;2.42;0.60;;;;;;;15.14;45.38;97413.69;5028144;28;20049;-75
2021/09/30 11:37:24;;;;;;;1.48;0.63;;;;;;;15.09;45.83;97411.09;5027614;28;20516;-75
2021/09/30 11:39:53;;;;;;;2.55;0.50;;;;;;;14.94;45.45;97409.63;5027549;28;20080;-74
2021/09/30 11:42:22;;;;;;;5.85;0.70;;;;;;;14.90;49.06;97402.34;5027789;28;20053;-75
2021/09/30 11:44:59;;;;;;;1.40;0.55;;;;;;;14.95;46.42;97404.94;5026083;28;20187;-74
2021/09/30 11:47:27;;;;;;;1.52;0.60;;;;;;;15.05;44.68;97393.66;5027723;28;20057;-74
2021/09/30 11:49:54;;;;;;;2.45;0.77;;;;;;;15.18;44.86;97389.94;5027016;28;20045;-74
2021/09/30 11:52:21;;;;;;;2.75;0.63;;;;;;;15.21;46.20;97391.25;5026653;28;20053;-74
2021/09/30 11:54:48;;;;;;;3.42;0.70;;;;;;;15.46;45.92;97387.69;5027548;28;20492;-74
2021/09/30 11:57:19;;;;;;;2.83;0.77;;;;;;;15.49;43.41;97381.53;5027326;28;20053;-74
2021/09/30 11:59:46;;;;;;;1.23;0.43;;;;;;;15.53;44.63;97381.69;5028015;28;20046;-75
2021/09/30 12:02:14;;;;;;;1.58;0.60;;;;;;;15.64;44.89;97366.53;5026802;28;20048;-74
2021/09/30 12:04:43;;;;;;;2.38;0.60;;;;;;;15.72;44.83;97362.97;5028002;28;20053;-75
2021/09/30 12:07:16;;;;;;;1.70;0.60;;;;;;;15.88;42.51;97361.31;5026521;28;20049;-74
2021/09/30 12:09:43;;;;;;;2.28;0.50;;;;;;;15.99;44.21;97361.75;5027890;28;20049;-75
2021/09/30 12:12:10;;;;;;;3.33;0.70;;;;;;;16.03;43.10;97359.97;5026247;28;20053;-75
2021/09/30 12:14:39;;;;;;;3.35;0.90;;;;;;;16.03;45.58;97356.41;5016228;28;20045;-75
2021/09/30 12:17:08;;;;;;;2.17;0.70;;;;;;;16.15;43.81;97354.56;5014429;28;20045;-73
2021/09/30 12:19:39;;;;;;;2.42;0.70;;;;;;;16.32;45.22;97345.44;5027037;28;20049;-75
2021/09/30 12:22:09;;;;;;;3.40;0.82;;;;;;;16.53;44.81;97336.44;5027016;28;20111;-76
2021/09/30 12:24:37;;;;;;;4.75;0.70;;;;;;;16.48;44.03;97339.38;5026827;28;20405;-75
2021/09/30 12:27:07;;;;;;;3.22;0.80;;;;;;;16.56;44.00;97338.53;5027192;28;20038;-75
2021/09/30 12:29:40;;;;;;;2.38;0.60;;;;;;;16.66;47.11;97332.66;5027003;28;20127;-76
2021/09/30 12:32:08;;;;;;;2.85;0.70;;;;;;;16.71;42.70;97332.50;5026724;28;20120;-75
2021/09/30 12:34:36;;;;;;;0.50;0.40;;;;;;;16.80;45.21;97322.22;5027788;28;20523;-75
2021/09/30 12:37:03;;;;;;;2.95;0.80;;;;;;;16.87;45.55;97324.44;5025838;28;20133;-75
2021/09/30 12:39:33;;;;;;;1.98;0.60;;;;;;;17.06;44.81;97322.00;5027780;28;20132;-75
2021/09/30 12:42:12;;;;;;;2.00;0.75;;;;;;;17.22;43.20;97324.94;5026669;28;20052;-75
2021/09/30 12:44:43;;;;;;;1.20;0.60;;;;;;;17.34;42.74;97305.75;5028115;28;20037;-76
2021/09/30 12:47:10;;;;;;;2.08;0.60;;;;;;;17.41;43.26;97300.50;5025829;28;20046;-75
2021/09/30 12:49:38;;;;;;;2.42;0.63;;;;;;;17.50;45.07;97296.84;5027678;28;20049;-77
2021/09/30 12:52:17;;;;;;;1.77;0.60;;;;;;;17.39;41.70;97297.28;5026043;28;20045;-75
2021/09/30 12:54:45;;;;;;;3.75;0.65;;;;;;;17.33;42.31;97306.91;5026717;28;20049;-76
2021/09/30 12:57:12;;;;;;;3.83;0.40;;;;;;;17.27;41.88;97293.66;5026958;28;20091;-75
2021/09/30 12:59:38;;;;;;;2.35;0.73;;;;;;;17.27;42.84;97288.97;5027012;28;20075;-76
2021/09/30 13:02:05;;;;;;;1.50;0.60;;;;;;;17.32;43.18;97287.94;5027331;28;20046;-75
2021/09/30 13:04:33;;;;;;;2.70;0.75;;;;;;;17.36;41.68;97286.94;5026619;28;20057;-76
2021/09/30 13:07:03;;;;;;;5.38;0.80;;;;;;;17.36;43.69;97275.91;5027695;28;20128;-76
2021/09/30 13:09:32;;;;;;;3.72;0.63;;;;;;;17.50;44.31;97275.63;5026363;28;20044;-76
2021/09/30 13:12:00;;;;;;;2.53;0.55;;;;;;;17.59;43.31;97278.28;5028115;28;20049;-75
2021/09/30 13:14:30;;;;;;;3.08;0.70;;;;;;;17.58;41.06;97276.66;5026098;28;20730;-78
2021/09/30 13:17:12;;;;;;;3.20;0.60;;;;;;;17.48;41.30;97273.19;5027489;28;20079;-76
2021/09/30 13:19:51;;;;;;;4.38;0.73;;;;;;;17.18;41.67;97269.00;5026699;28;20049;-77
2021/09/30 13:22:20;;;;;;;2.50;0.70;;;;;;;16.98;42.93;97272.56;5025086;28;20069;-76
2021/09/30 13:24:49;;;;;;;2.67;0.68;;;;;;;16.83;42.34;97268.50;5026571;28;20041;-76
2021/09/30 13:27:18;;;;;;;2.97;0.80;;;;;;;16.64;41.73;97266.16;5026553;28;20516;-77
2021/09/30 13:29:46;;;;;;;1.10;0.60;;;;;;;16.60;43.98;97265.22;5027442;28;20050;-76
2021/09/30 13:32:13;;;;;;;0.55;0.50;;;;;;;16.75;44.46;97261.09;5026250;28;20055;-76
2021/09/30 13:34:41;;;;;;;3.22;1.00;;;;;;;16.64;42.15;97261.47;5027086;28;20060;-76
2021/09/30 13:37:07;;;;;;;3.95;0.70;;;;;;;16.52;42.34;97257.84;5027139;28;20059;-75
2021/09/30 13:39:36;;;;;;;4.20;0.77;;;;;;;16.60;44.93;97255.06;5027796;28;20128;-76
2021/09/30 13:42:03;;;;;;;5.40;0.75;;;;;;;16.61;42.66;97250.34;5030443;28;20049;-76
2021/09/30 13:44:30;;;;;;;1.63;0.57;;;;;;;16.43;42.02;97250.47;5029920;28;20045;-75
2021/09/30 13:46:56;;;;;;;1.45;0.60;;;;;;;16.29;44.28;97249.94;5031376;28;20053;-76
2021/09/30 13:49:23;;;;;;;2.15;0.80;;;;;;;16.30;45.75;97245.22;5030348;28;20049;-75
2021/09/30 13:51:49;;;;;;;4.15;0.80;;;;;;;16.30;45.00;97246.03;5030884;28;20045;-76
2021/09/30 13:54:16;;;;;;;2.75;0.90;;;;;;;16.46;45.95;97228.97;5029381;28;20049;-75
2021/09/30 13:56:44;;;;;;;2.10;0.65;;;;;;;16.70;45.08;97231.81;5030730;28;20053;-76
2021/09/30 13:59:10;;;;;;;6.07;0.73;;;;;;;16.95;45.12;97219.81;5029413;28;20053;-77
2021/09/30 14:01:37;;;;;;;6.22;1.20;;;;;;;17.22;42.85;97220.34;5030616;28;20060;-78
2021/09/30 14:04:04;;;;;;;5.82;1.05;;;;;;;17.43;44.33;97225.81;5029676;28;20076;-78
2021/09/30 14:06:31;;;;;;;3.53;0.70;;;;;;;17.63;40.86;97229.63;5030140;28;20072;-78
2021/09/30 14:08:58;;;;;;;3.28;0.80;;;;;;;17.64;39.21;97217.47;5030223;28;20412;-76